Time;durP1;ratioP1;P1;durP2;ratioP2;P2;SDS_P1;SDS_P2;PMS_P1;PMS_P2;Temp;Humidity;BMP_temperature;BMP_pressure;BME280_temperature;BME280_humidity;BME280_pressure;Samples;Min_cycle;Max_cycle;Signal;HPM_P1;HPM_P2
2021/11/11 00:01:47;;;;;;;5.43;2.25;;;;;;;;;;4884632;29;32593;-65
2021/11/11 00:04:18;;;;;;;2.92;2.22;;;;;;;;;;4884798;29;32400;-65
2021/11/11 00:06:46;;;;;;;5.60;1.98;;;;;;;;;;4884630;28;32301;-65
2021/11/11 00:09:12;;;;;;;5.70;2.10;;;;;;;;;;4884883;29;34205;-65
2021/11/11 00:11:42;;;;;;;3.63;2.35;;;;;;;;;;4883586;29;32453;-65
2021/11/11 00:14:09;;;;;;;3.40;2.05;;;;;;;;;;4884340;29;32495;-66
2021/11/11 00:16:36;;;;;;;5.30;2.33;;;;;;;;;;4884466;29;32527;-68
2021/11/11 00:19:03;;;;;;;3.03;2.05;;;;;;;;;;4867509;29;34770;-65
2021/11/11 00:21:29;;;;;;;3.90;2.08;;;;;;;;;;4884520;29;32476;-65
2021/11/11 00:23:56;;;;;;;3.65;1.40;;;;;;;;;;4884428;29;32423;-67
2021/11/11 00:26:23;;;;;;;4.13;2.10;;;;;;;;;;4884472;29;32356;-65
2021/11/11 00:28:51;;;;;;;4.22;2.00;;;;;;;;;;4884680;29;32267;-65
2021/11/11 00:31:17;;;;;;;2.83;1.90;;;;;;;;;;4884847;29;34012;-65
2021/11/11 00:33:44;;;;;;;2.85;1.65;;;;;;;;;;4884493;29;32493;-66
2021/11/11 00:36:10;;;;;;;3.95;1.70;;;;;;;;;;4884972;29;32378;-65
2021/11/11 00:38:37;;;;;;;4.60;2.28;;;;;;;;;;4884641;29;32314;-66
2021/11/11 00:41:03;;;;;;;3.58;1.80;;;;;;;;;;4884516;29;35010;-66
2021/11/11 00:43:30;;;;;;;3.40;1.90;;;;;;;;;;4883910;29;32211;-65
2021/11/11 00:45:58;;;;;;;3.05;1.83;;;;;;;;;;4884347;29;32671;-66
2021/11/11 00:48:25;;;;;;;3.28;1.90;;;;;;;;;;4884211;29;32434;-66
2021/11/11 00:50:53;;;;;;;2.83;1.80;;;;;;;;;;4885562;29;32887;-66
2021/11/11 00:53:20;;;;;;;4.13;2.13;;;;;;;;;;4887578;29;34528;-68
2021/11/11 00:55:47;;;;;;;2.97;2.13;;;;;;;;;;4887391;29;33040;-66
2021/11/11 00:58:13;;;;;;;3.63;2.58;;;;;;;;;;4887515;29;32458;-66
2021/11/11 01:00:40;;;;;;;3.10;1.85;;;;;;;;;;4887183;28;32541;-68
2021/11/11 01:03:10;;;;;;;4.72;2.45;;;;;;;;;;4887022;29;33974;-67
2021/11/11 01:05:36;;;;;;;3.50;1.83;;;;;;;;;;4885799;29;32507;-67
2021/11/11 01:08:04;;;;;;;2.83;2.08;;;;;;;;;;4884221;29;32549;-66
2021/11/11 01:10:31;;;;;;;3.15;2.55;;;;;;;;;;4885609;29;32520;-67
2021/11/11 01:12:58;;;;;;;3.72;1.83;;;;;;;;;;4887038;29;32266;-66
2021/11/11 01:15:28;;;;;;;3.35;1.90;;;;;;;;;;4885057;29;34919;-67
2021/11/11 01:17:54;;;;;;;3.97;1.90;;;;;;;;;;4886730;29;32337;-67
2021/11/11 01:20:23;;;;;;;3.28;1.83;;;;;;;;;;4888564;28;32295;-69
2021/11/11 01:22:54;;;;;;;6.13;2.28;;;;;;;;;;4906032;28;32402;-66
2021/11/11 01:25:23;;;;;;;3.40;2.17;;;;;;;;;;4905987;28;35064;-69
2021/11/11 01:27:50;;;;;;;4.75;2.42;;;;;;;;;;4904607;28;32335;-68
2021/11/11 01:30:17;;;;;;;6.38;2.25;;;;;;;;;;4905242;28;32238;-67
2021/11/11 01:32:45;;;;;;;3.35;2.13;;;;;;;;;;4906153;28;32129;-65
2021/11/11 01:35:14;;;;;;;3.63;2.45;;;;;;;;;;4905964;28;32473;-65
2021/11/11 01:37:44;;;;;;;4.03;2.30;;;;;;;;;;4905975;28;35620;-65
2021/11/11 01:40:12;;;;;;;6.00;2.47;;;;;;;;;;4905732;28;32494;-67
2021/11/11 01:42:45;;;;;;;14.13;6.82;;;;;;;;;;4905445;28;32416;-66
2021/11/11 01:45:11;;;;;;;13.63;5.57;;;;;;;;;;4905866;28;32125;-68
2021/11/11 01:47:39;;;;;;;8.30;3.90;;;;;;;;;;4905952;28;34161;-65
2021/11/11 01:50:09;;;;;;;6.20;2.72;;;;;;;;;;4905988;28;32381;-69
2021/11/11 01:52:36;;;;;;;9.85;2.58;;;;;;;;;;4905522;28;32460;-67
2021/11/11 01:55:07;;;;;;;5.30;2.60;;;;;;;;;;4905445;28;32438;-67
2021/11/11 01:57:34;;;;;;;4.55;2.55;;;;;;;;;;4905574;28;32408;-66
2021/11/11 02:00:01;;;;;;;7.80;2.92;;;;;;;;;;4904961;28;34077;-66
2021/11/11 02:02:29;;;;;;;6.63;2.28;;;;;;;;;;4905260;28;32364;-65
2021/11/11 02:04:56;;;;;;;6.18;2.20;;;;;;;;;;4905210;28;32388;-64
2021/11/11 02:07:23;;;;;;;3.40;2.00;;;;;;;;;;4905711;28;32422;-65
2021/11/11 02:09:51;;;;;;;5.93;2.40;;;;;;;;;;4888054;28;33984;-64
2021/11/11 02:12:19;;;;;;;4.75;2.17;;;;;;;;;;4887533;28;32470;-65
2021/11/11 02:14:46;;;;;;;3.85;2.05;;;;;;;;;;4886274;29;32361;-65
2021/11/11 02:17:13;;;;;;;4.07;2.25;;;;;;;;;;4885867;29;32377;-64
2021/11/11 02:19:44;;;;;;;5.50;2.15;;;;;;;;;;4886536;29;32411;-66
2021/11/11 02:22:11;;;;;;;5.03;2.00;;;;;;;;;;4902354;28;34728;-66
2021/11/11 02:24:38;;;;;;;4.85;2.08;;;;;;;;;;4905329;28;32324;-64
2021/11/11 02:27:05;;;;;;;3.22;2.47;;;;;;;;;;4904734;28;32560;-66
2021/11/11 02:29:31;;;;;;;7.80;2.13;;;;;;;;;;4905093;28;32419;-64
2021/11/11 02:31:58;;;;;;;5.18;2.45;;;;;;;;;;4889089;28;34121;-64
2021/11/11 02:34:25;;;;;;;7.28;2.88;;;;;;;;;;4886044;29;32455;-62
2021/11/11 02:36:56;;;;;;;4.15;2.28;;;;;;;;;;4890630;28;32564;-66
2021/11/11 02:39:23;;;;;;;5.22;2.20;;;;;;;;;;4904759;28;32721;-68
2021/11/11 02:41:49;;;;;;;4.22;2.25;;;;;;;;;;4900099;28;32395;-68
2021/11/11 02:44:16;;;;;;;5.63;2.05;;;;;;;;;;4890129;28;32468;-65
2021/11/11 02:46:43;;;;;;;7.95;2.97;;;;;;;;;;4899408;28;32419;-65
2021/11/11 02:49:09;;;;;;;5.93;1.83;;;;;;;;;;4905255;28;32225;-66
2021/11/11 02:51:36;;;;;;;6.15;2.17;;;;;;;;;;4892520;28;32302;-65
2021/11/11 02:54:04;;;;;;;5.15;2.42;;;;;;;;;;4900134;28;35257;-66
2021/11/11 02:56:31;;;;;;;3.45;2.40;;;;;;;;;;4904617;28;32304;-66
2021/11/11 02:58:58;;;;;;;4.07;2.22;;;;;;;;;;4903132;28;32497;-66
2021/11/11 03:01:25;;;;;;;4.10;1.85;;;;;;;;;;4896698;28;32336;-66
2021/11/11 03:03:51;;;;;;;5.70;1.63;;;;;;;;;;4894002;28;32570;-67
2021/11/11 03:06:18;;;;;;;3.17;2.15;;;;;;;;;;4894092;28;32496;-66
2021/11/11 03:08:44;;;;;;;6.03;2.10;;;;;;;;;;4894243;28;32213;-67
2021/11/11 03:11:13;;;;;;;4.40;2.15;;;;;;;;;;4892705;28;32493;-66
2021/11/11 03:13:40;;;;;;;5.18;2.10;;;;;;;;;;4893773;28;32567;-66
2021/11/11 03:16:07;;;;;;;5.47;2.17;;;;;;;;;;4895656;28;35223;-66
2021/11/11 03:18:34;;;;;;;5.88;1.83;;;;;;;;;;4893882;28;32498;-66
2021/11/11 03:21:00;;;;;;;5.78;1.92;;;;;;;;;;4893926;28;32483;-67
2021/11/11 03:23:27;;;;;;;5.93;2.20;;;;;;;;;;4895631;28;32303;-67
2021/11/11 03:25:54;;;;;;;5.82;2.30;;;;;;;;;;4904372;28;32396;-66
2021/11/11 03:28:22;;;;;;;4.40;2.30;;;;;;;;;;4903930;28;32524;-67
2021/11/11 03:30:48;;;;;;;6.55;2.67;;;;;;;;;;4902278;28;32410;-66
2021/11/11 03:33:15;;;;;;;5.70;2.00;;;;;;;;;;4903498;28;32439;-67
2021/11/11 03:35:42;;;;;;;8.25;2.47;;;;;;;;;;4903213;28;32455;-68
2021/11/11 03:38:09;;;;;;;6.15;2.42;;;;;;;;;;4885529;28;35732;-64
2021/11/11 03:40:41;;;;;;;4.75;2.60;;;;;;;;;;4885198;29;32342;-64
2021/11/11 03:43:09;;;;;;;7.15;2.33;;;;;;;;;;4884263;29;32499;-64
2021/11/11 03:45:38;;;;;;;8.63;2.35;;;;;;;;;;4884694;29;32252;-65
2021/11/11 03:48:06;;;;;;;5.35;2.60;;;;;;;;;;4883309;29;32361;-65
2021/11/11 03:50:33;;;;;;;9.30;2.58;;;;;;;;;;4882594;29;32303;-63
2021/11/11 03:53:01;;;;;;;9.18;2.60;;;;;;;;;;4881595;29;32626;-66
2021/11/11 03:55:28;;;;;;;7.90;2.50;;;;;;;;;;4884645;29;32224;-66
2021/11/11 03:57:56;;;;;;;11.48;2.67;;;;;;;;;;4884486;29;32451;-65
2021/11/11 04:00:25;;;;;;;6.15;2.40;;;;;;;;;;4884295;29;35055;-65
2021/11/11 04:02:53;;;;;;;12.75;2.40;;;;;;;;;;4884067;29;32453;-65
2021/11/11 04:05:20;;;;;;;6.18;2.40;;;;;;;;;;4884588;29;32348;-64
2021/11/11 04:07:47;;;;;;;8.35;2.13;;;;;;;;;;4884753;29;32373;-64
2021/11/11 04:10:14;;;;;;;5.75;2.25;;;;;;;;;;4884712;28;32393;-64
2021/11/11 04:12:41;;;;;;;15.82;2.72;;;;;;;;;;4888091;28;32530;-65
2021/11/11 04:15:09;;;;;;;7.65;1.92;;;;;;;;;;4749862;28;32729;-64
2021/11/11 04:17:36;;;;;;;5.45;2.38;;;;;;;;;;4855641;29;32420;-66
2021/11/11 04:20:05;;;;;;;6.10;2.20;;;;;;;;;;4845740;29;32368;-66
2021/11/11 04:22:32;;;;;;;5.80;2.08;;;;;;;;;;4845969;29;34042;-63
2021/11/11 04:25:02;;;;;;;6.30;2.53;;;;;;;;;;4846692;29;32632;-65
2021/11/11 04:27:34;;;;;;;10.43;2.05;;;;;;;;;;4835320;29;32517;-64
2021/11/11 04:30:45;;;;;;;7.30;2.40;;;;;;;;;;4839299;29;32443;-64
2021/11/11 04:32:51;;;;;;;6.47;2.08;;;;;;;;;;4833595;29;32513;-64
2021/11/11 04:35:19;;;;;;;8.15;2.58;;;;;;;;;;4849119;29;32524;-63
2021/11/11 04:37:56;;;;;;;11.50;2.50;;;;;;;;;;4847977;29;32361;-64
2021/11/11 04:40:48;;;;;;;7.60;2.50;;;;;;;;;;4849032;29;32410;-65
2021/11/11 05:04:38;;;;;;;7.95;2.50;;;;;;;;;;4853411;29;32304;-64
2021/11/11 05:07:06;;;;;;;11.55;2.30;;;;;;;;;;4847640;29;32421;-65
2021/11/11 05:09:32;;;;;;;7.00;1.77;;;;;;;;;;4849132;29;35484;-65
2021/11/11 05:11:59;;;;;;;6.32;2.25;;;;;;;;;;4847618;29;32406;-63
2021/11/11 05:14:25;;;;;;;7.82;1.85;;;;;;;;;;4847705;29;32440;-64
2021/11/11 05:16:52;;;;;;;4.85;1.80;;;;;;;;;;4844938;29;33148;-64
2021/11/11 05:19:19;;;;;;;5.97;1.73;;;;;;;;;;4848431;29;34874;-67
2021/11/11 05:21:45;;;;;;;5.90;2.25;;;;;;;;;;4843662;29;32793;-67
2021/11/11 05:24:13;;;;;;;5.78;1.88;;;;;;;;;;4848590;29;32506;-65
2021/11/11 05:26:40;;;;;;;7.35;1.80;;;;;;;;;;4848675;29;32344;-65
2021/11/11 05:29:07;;;;;;;5.07;1.60;;;;;;;;;;4848522;29;32593;-67
2021/11/11 05:31:34;;;;;;;6.53;1.70;;;;;;;;;;4848415;29;34527;-66
2021/11/11 05:34:00;;;;;;;4.15;1.90;;;;;;;;;;4847643;29;32395;-64
2021/11/11 05:36:27;;;;;;;7.43;1.73;;;;;;;;;;4847143;29;32536;-64
2021/11/11 05:38:54;;;;;;;6.15;1.77;;;;;;;;;;4848667;29;32148;-67
2021/11/11 05:41:22;;;;;;;4.93;1.80;;;;;;;;;;4847720;29;35164;-64
2021/11/11 05:43:48;;;;;;;5.97;1.98;;;;;;;;;;4851425;29;32394;-64
2021/11/11 05:46:15;;;;;;;5.25;2.03;;;;;;;;;;4861340;29;32424;-65
2021/11/11 05:48:42;;;;;;;7.28;2.03;;;;;;;;;;4848498;29;32337;-64
2021/11/11 05:51:08;;;;;;;6.50;1.75;;;;;;;;;;4847837;29;32707;-64
2021/11/11 05:53:35;;;;;;;6.53;1.40;;;;;;;;;;4848216;29;34040;-63
2021/11/11 05:56:01;;;;;;;6.22;1.42;;;;;;;;;;4848065;29;32364;-66
2021/11/11 05:58:29;;;;;;;3.78;1.52;;;;;;;;;;4847828;29;32362;-64
2021/11/11 06:00:56;;;;;;;3.58;1.50;;;;;;;;;;4689864;29;32435;-66
2021/11/11 06:03:22;;;;;;;15.82;4.75;;;;;;;;;;4846405;29;37150;-66
2021/11/11 06:05:49;;;;;;;16.38;4.95;;;;;;;;;;4847681;29;32492;-64
2021/11/11 06:08:16;;;;;;;25.77;7.10;;;;;;;;;;4786053;29;32183;-65
2021/11/11 06:10:42;;;;;;;86.63;20.27;;;;;;;;;;4782892;29;32686;-65
2021/11/11 06:13:09;;;;;;;53.92;14.18;;;;;;;;;;4829615;29;32255;-65
2021/11/11 06:15:37;;;;;;;43.75;11.57;;;;;;;;;;4829832;29;34054;-64
2021/11/11 06:18:04;;;;;;;39.47;11.07;;;;;;;;;;4829108;29;32317;-67
2021/11/11 06:20:39;;;;;;;40.97;10.30;;;;;;;;;;4825810;29;32551;-65
2021/11/11 06:23:07;;;;;;;27.92;8.43;;;;;;;;;;4822728;29;32343;-65
2021/11/11 06:25:33;;;;;;;24.73;6.75;;;;;;;;;;4820032;29;34507;-65
2021/11/11 06:28:00;;;;;;;21.85;6.22;;;;;;;;;;4739259;29;32424;-65
2021/11/11 06:30:27;;;;;;;22.40;6.00;;;;;;;;;;4834190;29;32389;-66
2021/11/11 06:32:55;;;;;;;14.77;4.57;;;;;;;;;;4840606;29;32325;-66
2021/11/11 06:35:22;;;;;;;12.25;3.55;;;;;;;;;;4829353;29;32467;-65
2021/11/11 06:37:48;;;;;;;10.75;3.35;;;;;;;;;;4836534;29;34069;-65
2021/11/11 06:40:15;;;;;;;9.35;3.05;;;;;;;;;;4840522;29;32734;-66
2021/11/11 06:42:42;;;;;;;9.60;2.50;;;;;;;;;;4829082;29;32428;-65
2021/11/11 06:45:12;;;;;;;7.78;2.55;;;;;;;;;;4829950;29;32383;-65
2021/11/11 06:47:39;;;;;;;9.15;2.80;;;;;;;;;;4833172;29;34113;-66
2021/11/11 06:50:09;;;;;;;8.23;2.22;;;;;;;;;;4847226;29;32696;-65
2021/11/11 06:52:36;;;;;;;7.43;2.33;;;;;;;;;;4833301;29;33197;-65
2021/11/11 06:55:04;;;;;;;5.05;2.33;;;;;;;;;;4838663;29;32562;-65
2021/11/11 06:57:31;;;;;;;7.88;2.45;;;;;;;;;;4847761;29;32346;-65
2021/11/11 06:59:57;;;;;;;6.10;1.92;;;;;;;;;;4847399;29;34584;-69
2021/11/11 07:02:26;;;;;;;4.97;2.30;;;;;;;;;;4847677;29;32296;-64
2021/11/11 07:04:52;;;;;;;2.42;1.30;;;;;;;;;;4847122;29;32356;-65
2021/11/11 07:07:20;;;;;;;24.95;6.13;;;;;;;;;;3881598;29;36896;-64
2021/11/11 07:09:47;;;;;;;17.05;4.28;;;;;;;;;;4658648;29;35671;-65
2021/11/11 07:12:14;;;;;;;13.77;4.38;;;;;;;;;;4828166;29;32337;-64
2021/11/11 07:14:42;;;;;;;14.15;4.55;;;;;;;;;;4828907;29;32231;-67
2021/11/11 07:17:10;;;;;;;12.57;3.72;;;;;;;;;;4828894;29;32596;-65
2021/11/11 07:19:36;;;;;;;6.53;3.05;;;;;;;;;;4828697;29;32453;-64
2021/11/11 07:22:04;;;;;;;8.00;3.05;;;;;;;;;;4828907;29;34803;-66
2021/11/11 07:24:33;;;;;;;8.30;2.53;;;;;;;;;;4828819;29;32309;-65
2021/11/11 07:27:00;;;;;;;7.75;3.13;;;;;;;;;;4824129;29;32631;-65
2021/11/11 07:29:27;;;;;;;;;;;;;;;;;;4829427;29;32510;-65
2021/11/11 07:31:54;;;;;;;4.72;1.98;;;;;;;;;;4829007;29;34149;-64
2021/11/11 07:34:21;;;;;;;4.90;2.25;;;;;;;;;;4823834;29;32531;-65
2021/11/11 07:36:48;;;;;;;4.15;1.83;;;;;;;;;;4828658;29;32356;-65
2021/11/11 07:39:16;;;;;;;5.38;2.30;;;;;;;;;;4829120;29;32439;-64
2021/11/11 07:41:45;;;;;;;2.97;1.80;;;;;;;;;;4828063;29;32416;-65
2021/11/11 07:44:12;;;;;;;3.25;1.58;;;;;;;;;;4733263;29;34963;-64
2021/11/11 07:46:40;;;;;;;4.00;1.75;;;;;;;;;;4862304;29;32580;-64
2021/11/11 07:49:07;;;;;;;7.05;2.10;;;;;;;;;;4836769;29;32423;-63
2021/11/11 07:51:33;;;;;;;4.75;2.75;;;;;;;;;;4839087;29;32290;-63
2021/11/11 07:54:02;;;;;;;6.22;1.88;;;;;;;;;;4838727;29;34123;-63
2021/11/11 07:56:28;;;;;;;4.32;1.63;;;;;;;;;;4840017;29;32958;-64
2021/11/11 07:58:57;;;;;;;3.15;2.05;;;;;;;;;;4840882;29;32361;-65
2021/11/11 08:01:24;;;;;;;3.08;1.55;;;;;;;;;;4842490;29;32358;-66
2021/11/11 08:03:51;;;;;;;4.47;2.33;;;;;;;;;;4839326;29;32377;-67
2021/11/11 08:06:17;;;;;;;2.80;1.55;;;;;;;;;;4841954;29;35761;-66
2021/11/11 08:08:44;;;;;;;4.15;1.73;;;;;;;;;;4840762;29;32474;-65
2021/11/11 08:11:11;;;;;;;4.97;1.88;;;;;;;;;;4840595;29;32629;-65
2021/11/11 08:13:37;;;;;;;2.97;1.42;;;;;;;;;;4838689;29;32442;-64
2021/11/11 08:16:06;;;;;;;3.35;1.65;;;;;;;;;;4839997;29;35270;-63
2021/11/11 08:18:33;;;;;;;3.75;1.48;;;;;;;;;;4840885;29;32329;-64
2021/11/11 08:20:59;;;;;;;;;;;;;;;;;;4847032;29;32243;-67
2021/11/11 08:23:26;;;;;;;12.82;3.95;;;;;;;;;;4768431;28;32462;-65
2021/11/11 08:25:53;;;;;;;9.85;3.03;;;;;;;;;;4849348;29;32720;-68
2021/11/11 08:28:22;;;;;;;5.60;2.38;;;;;;;;;;4842242;29;34791;-66
2021/11/11 08:30:50;;;;;;;6.82;2.60;;;;;;;;;;4852989;29;32391;-68
2021/11/11 08:33:18;;;;;;;6.13;2.08;;;;;;;;;;4854015;29;32574;-65
2021/11/11 08:35:47;;;;;;;3.85;2.25;;;;;;;;;;4854767;29;32437;-64
2021/11/11 08:38:14;;;;;;;5.50;2.13;;;;;;;;;;4848788;29;35195;-65
2021/11/11 08:40:41;;;;;;;4.20;1.75;;;;;;;;;;4855972;28;32495;-65
2021/11/11 08:43:08;;;;;;;3.97;1.77;;;;;;;;;;4843524;29;32506;-67
2021/11/11 08:45:35;;;;;;;5.57;2.17;;;;;;;;;;4846367;29;32434;-65
2021/11/11 08:48:02;;;;;;;6.80;2.10;;;;;;;;;;4841501;29;32302;-67
2021/11/11 08:50:31;;;;;;;5.07;1.88;;;;;;;;;;4852330;29;34216;-67
2021/11/11 08:52:59;;;;;;;3.55;1.65;;;;;;;;;;4854619;29;32407;-65
2021/11/11 08:55:30;;;;;;;6.55;2.00;;;;;;;;;;4851817;29;32415;-67
2021/11/11 08:57:58;;;;;;;4.28;1.98;;;;;;;;;;4857443;29;32449;-66
2021/11/11 09:00:30;;;;;;;4.25;2.05;;;;;;;;;;4851451;29;34796;-66
2021/11/11 09:03:01;;;;;;;5.65;2.25;;;;;;;;;;4848342;29;32437;-65
2021/11/11 09:05:32;;;;;;;4.03;2.13;;;;;;;;;;4847273;29;32437;-66
2021/11/11 09:08:00;;;;;;;5.10;1.67;;;;;;;;;;4842820;29;32433;-65
2021/11/11 09:10:28;;;;;;;3.58;1.75;;;;;;;;;;4846556;29;32355;-67
2021/11/11 09:12:54;;;;;;;;;;;;;;;;;;4845138;29;34411;-68
2021/11/11 09:15:24;;;;;;;3.08;1.50;;;;;;;;;;4848335;29;32739;-65
2021/11/11 09:17:52;;;;;;;3.85;1.75;;;;;;;;;;4847853;29;32389;-65
2021/11/11 09:20:19;;;;;;;4.47;2.22;;;;;;;;;;4847655;29;32453;-65
2021/11/11 09:22:50;;;;;;;4.10;1.77;;;;;;;;;;4847341;29;36147;-65
2021/11/11 09:25:17;;;;;;;5.43;2.25;;;;;;;;;;4845779;29;32592;-64
2021/11/11 09:27:44;;;;;;;;;;;;;;;;;;4847123;29;32327;-67
2021/11/11 09:30:14;;;;;;;5.25;2.00;;;;;;;;;;4844840;29;32470;-64
2021/11/11 09:32:42;;;;;;;3.15;1.73;;;;;;;;;;4847646;29;32418;-66
2021/11/11 09:35:10;;;;;;;3.70;1.55;;;;;;;;;;4847534;29;34624;-67
2021/11/11 09:37:37;;;;;;;3.70;1.73;;;;;;;;;;4846158;29;32778;-67
2021/11/11 09:40:09;;;;;;;5.15;1.70;;;;;;;;;;4846723;29;32535;-64
2021/11/11 09:42:35;;;;;;;4.00;1.75;;;;;;;;;;4845980;29;32844;-67
2021/11/11 09:45:03;;;;;;;2.05;1.35;;;;;;;;;;4842920;29;34617;-66
2021/11/11 09:47:30;;;;;;;2.88;1.90;;;;;;;;;;4846842;29;32169;-67
2021/11/11 09:49:57;;;;;;;8.02;1.95;;;;;;;;;;4848200;29;32539;-65
2021/11/11 09:52:25;;;;;;;2.58;1.52;;;;;;;;;;4848046;29;32465;-65
2021/11/11 10:00:25;;;;;;;4.68;1.88;;;;;;;;;;4846639;29;32358;-66
2021/11/11 10:02:51;;;;;;;3.70;1.63;;;;;;;;;;4845967;29;32705;-65
2021/11/11 10:05:19;;;;;;;4.35;1.55;;;;;;;;;;4847306;29;32407;-65
2021/11/11 10:07:45;;;;;;;3.72;1.63;;;;;;;;;;4847556;29;35097;-66
2021/11/11 10:10:37;;;;;;;2.60;1.38;;;;;;;;;;4846367;29;32518;-66
2021/11/11 10:13:17;;;;;;;2.35;1.10;;;;;;;;;;4847819;29;32394;-65
2021/11/11 10:16:04;;;;;;;3.05;1.40;;;;;;;;;;4845689;29;32646;-66
2021/11/11 10:18:41;;;;;;;4.88;1.40;;;;;;;;;;4847293;29;32295;-66
2021/11/11 10:21:22;;;;;;;2.63;1.52;;;;;;;;;;4848042;29;35099;-65
2021/11/11 10:23:49;;;;;;;3.08;1.40;;;;;;;;;;4847081;29;32477;-65
2021/11/11 10:26:24;;;;;;;9.73;2.92;;;;;;;;;;4848271;29;32668;-68
2021/11/11 10:28:52;;;;;;;7.82;3.03;;;;;;;;;;4848562;29;32284;-66
2021/11/11 10:31:20;;;;;;;5.20;2.28;;;;;;;;;;4861765;29;34575;-65
2021/11/11 10:34:09;;;;;;;3.67;2.22;;;;;;;;;;4866451;29;32523;-66
2021/11/11 10:36:45;;;;;;;5.35;2.15;;;;;;;;;;4866732;29;32373;-64
2021/11/11 10:39:15;;;;;;;4.50;1.70;;;;;;;;;;4866247;29;32492;-68
2021/11/11 10:41:43;;;;;;;5.15;2.00;;;;;;;;;;4861312;29;32409;-65
2021/11/11 10:44:31;;;;;;;3.75;1.58;;;;;;;;;;4828684;29;34733;-66
2021/11/11 10:47:01;;;;;;;4.95;1.50;;;;;;;;;;4840845;29;32602;-68
2021/11/11 10:49:36;;;;;;;2.97;1.52;;;;;;;;;;4843379;29;32367;-66
2021/11/11 10:52:30;;;;;;;3.95;2.05;;;;;;;;;;4847227;29;32476;-67
2021/11/11 10:55:14;;;;;;;4.85;1.48;;;;;;;;;;4843229;29;34179;-66
2021/11/11 10:57:48;;;;;;;4.40;1.73;;;;;;;;;;4847957;29;32406;-66
2021/11/11 11:00:46;;;;;;;3.85;1.67;;;;;;;;;;4847774;29;32291;-68
2021/11/11 11:03:15;;;;;;;2.85;1.50;;;;;;;;;;4846400;29;32302;-67
2021/11/11 11:05:50;;;;;;;4.05;1.38;;;;;;;;;;4847548;29;32388;-65
2021/11/11 11:08:20;;;;;;;2.55;1.25;;;;;;;;;;4845618;29;35614;-66
2021/11/11 11:10:50;;;;;;;2.08;1.65;;;;;;;;;;4835933;29;32592;-66
2021/11/11 11:13:21;;;;;;;2.38;1.50;;;;;;;;;;4828072;29;32434;-66
2021/11/11 11:15:53;;;;;;;2.42;1.63;;;;;;;;;;4826582;29;32257;-67
2021/11/11 11:18:24;;;;;;;5.35;1.33;;;;;;;;;;4836559;29;34017;-66
2021/11/11 11:20:56;;;;;;;3.08;1.75;;;;;;;;;;4865455;29;32367;-66
2021/11/11 11:23:29;;;;;;;3.35;1.60;;;;;;;;;;4866477;29;32792;-67
2021/11/11 11:26:07;;;;;;;5.05;1.58;;;;;;;;;;4865618;29;32417;-66
2021/11/11 11:28:47;;;;;;;2.45;1.10;;;;;;;;;;4865821;29;32841;-65
2021/11/11 11:31:28;;;;;;;1.85;1.40;;;;;;;;;;4865785;29;35472;-66
2021/11/11 11:33:55;;;;;;;2.38;1.48;;;;;;;;;;4856893;29;32594;-63
2021/11/11 11:36:35;;;;;;;4.20;1.70;;;;;;;;;;4686789;28;32421;-66
2021/11/11 15:17:02;;;;;;;1.42;0.98;;;;;;;;;;4876185;28;32784;-66
